Aviation Digital Data Service (ADDS)

Output produced by METARs form (1456 UTC 18 August 2019)
found at http://www.aviationweather.gov/metar/data/
 
METAR text: KSNA 181453Z VRB04KT 10SM OVC016 20/14 A2991 RMK AO2 SLP128 T02000144 53013
Conditions at: KSNA (COSTA MESA , CA, US) observed 1453 UTC 18 August 2019
Temperature: 20.0°C (68°F)
Dewpoint: 14.4°C (58°F) [RH = 70%]
Pressure (altimeter): 29.91 inches Hg (1013.0 mb)
[Sea-level pressure: 1012.8 mb]
Winds: variable direction winds at 5 MPH (4 knots; 2.1 m/s)
Visibility: 10 or more miles (16+ km)
Ceiling: 1600 feet AGL
Clouds: overcast cloud deck at 1600 feet AGL
Weather: no significant weather observed at this time

METAR text: KSNA 181353Z 08004KT 10SM OVC016 19/14 A2990 RMK AO2 SLP124 T01940139
Conditions at: KSNA (COSTA MESA , CA, US) observed 1353 UTC 18 August 2019
Temperature: 19.4°C (67°F)
Dewpoint: 13.9°C (57°F) [RH = 71%]
Pressure (altimeter): 29.90 inches Hg (1012.6 mb)
[Sea-level pressure: 1012.4 mb]
Winds: from the E (80 degrees) at 5 MPH (4 knots; 2.1 m/s)
Visibility: 10 or more miles (16+ km)
Ceiling: 1600 feet AGL
Clouds: overcast cloud deck at 1600 feet AGL
Weather: no significant weather observed at this time

METAR text: KSNA 181253Z 00000KT 10SM OVC015 19/14 A2988 RMK AO2 SLP117 T01940144
Conditions at: KSNA (COSTA MESA , CA, US) observed 1253 UTC 18 August 2019
Temperature: 19.4°C (67°F)
Dewpoint: 14.4°C (58°F) [RH = 73%]
Pressure (altimeter): 29.88 inches Hg (1011.9 mb)
[Sea-level pressure: 1011.7 mb]
Winds: calm
Visibility: 10 or more miles (16+ km)
Ceiling: 1500 feet AGL
Clouds: overcast cloud deck at 1500 feet AGL
Weather: no significant weather observed at this time

METAR text: KSNA 181239Z AUTO 00000KT 10SM OVC015 19/14 A2988 RMK AO2 T01940144
Conditions at: KSNA (COSTA MESA , CA, US) observed 1239 UTC 18 August 2019
Temperature: 19.4°C (67°F)
Dewpoint: 14.4°C (58°F) [RH = 73%]
Pressure (altimeter): 29.88 inches Hg (1011.9 mb)
Winds: calm
Visibility: 10 or more miles (16+ km)
Ceiling: 1500 feet AGL
Clouds: overcast cloud deck at 1500 feet AGL
Weather: automated observation with no human augmentation;
there may or may not be significant weather present at this time

METAR text: KSNA 181153Z AUTO 00000KT 10SM OVC014 19/14 A2988 RMK AO2 SLP116 T01940144 10211 20194 58004
Conditions at: KSNA (COSTA MESA , CA, US) observed 1153 UTC 18 August 2019
Temperature: 19.4°C (67°F)
Dewpoint: 14.4°C (58°F) [RH = 73%]
Pressure (altimeter): 29.88 inches Hg (1011.9 mb)
[Sea-level pressure: 1011.6 mb]
Winds: calm
Visibility: 10 or more miles (16+ km)
Ceiling: 1400 feet AGL
Clouds: overcast cloud deck at 1400 feet AGL
Weather: automated observation with no human augmentation;
there may or may not be significant weather present at this time

METAR text: KSNA 181127Z AUTO 14004KT 10SM OVC014 20/14 A2988 RMK AO2 T02000144
Conditions at: KSNA (COSTA MESA , CA, US) observed 1127 UTC 18 August 2019
Temperature: 20.0°C (68°F)
Dewpoint: 14.4°C (58°F) [RH = 70%]
Pressure (altimeter): 29.88 inches Hg (1011.9 mb)
Winds: from the SE (140 degrees) at 5 MPH (4 knots; 2.1 m/s)
Visibility: 10 or more miles (16+ km)
Ceiling: 1400 feet AGL
Clouds: overcast cloud deck at 1400 feet AGL
Weather: automated observation with no human augmentation;
there may or may not be significant weather present at this time

METAR text: KSNA 181053Z AUTO 10003KT 10SM OVC015 20/14 A2988 RMK AO2 SLP117 T02000144
Conditions at: KSNA (COSTA MESA , CA, US) observed 1053 UTC 18 August 2019
Temperature: 20.0°C (68°F)
Dewpoint: 14.4°C (58°F) [RH = 70%]
Pressure (altimeter): 29.88 inches Hg (1011.9 mb)
[Sea-level pressure: 1011.7 mb]
Winds: from the E (100 degrees) at 3 MPH (3 knots; 1.5 m/s)
Visibility: 10 or more miles (16+ km)
Ceiling: 1500 feet AGL
Clouds: overcast cloud deck at 1500 feet AGL
Weather: automated observation with no human augmentation;
there may or may not be significant weather present at this time

METAR text: KSNA 180953Z AUTO VRB03KT 10SM OVC015 19/14 A2989 RMK AO2 SLP119 T01940144
Conditions at: KSNA (COSTA MESA , CA, US) observed 0953 UTC 18 August 2019
Temperature: 19.4°C (67°F)
Dewpoint: 14.4°C (58°F) [RH = 73%]
Pressure (altimeter): 29.89 inches Hg (1012.3 mb)
[Sea-level pressure: 1011.9 mb]
Winds: variable direction winds at 3 MPH (3 knots; 1.5 m/s)
Visibility: 10 or more miles (16+ km)
Ceiling: 1500 feet AGL
Clouds: overcast cloud deck at 1500 feet AGL
Weather: automated observation with no human augmentation;
there may or may not be significant weather present at this time

METAR text: KSNA 180853Z AUTO 18004KT 10SM OVC018 20/14 A2989 RMK AO2 SLP119 T02000144 53002
Conditions at: KSNA (COSTA MESA , CA, US) observed 0853 UTC 18 August 2019
Temperature: 20.0°C (68°F)
Dewpoint: 14.4°C (58°F) [RH = 70%]
Pressure (altimeter): 29.89 inches Hg (1012.3 mb)
[Sea-level pressure: 1011.9 mb]
Winds: from the S (180 degrees) at 5 MPH (4 knots; 2.1 m/s)
Visibility: 10 or more miles (16+ km)
Ceiling: 1800 feet AGL
Clouds: overcast cloud deck at 1800 feet AGL
Weather: automated observation with no human augmentation;
there may or may not be significant weather present at this time

METAR text: KSNA 180753Z AUTO 18004KT 10SM BKN018 20/14 A2988 RMK AO2 SLP117 T02000144 402440194
Conditions at: KSNA (COSTA MESA , CA, US) observed 0753 UTC 18 August 2019
Temperature: 20.0°C (68°F)
Dewpoint: 14.4°C (58°F) [RH = 70%]
Pressure (altimeter): 29.88 inches Hg (1011.9 mb)
[Sea-level pressure: 1011.7 mb]
Winds: from the S (180 degrees) at 5 MPH (4 knots; 2.1 m/s)
Visibility: 10 or more miles (16+ km)
Ceiling: 1800 feet AGL
Clouds: broken clouds at 1800 feet AGL
Weather: automated observation with no human augmentation;
there may or may not be significant weather present at this time

METAR text: KSNA 180653Z AUTO 14005KT 10SM OVC018 21/14 A2988 RMK AO2 SLP118 T02060144
Conditions at: KSNA (COSTA MESA , CA, US) observed 0653 UTC 18 August 2019
Temperature: 20.6°C (69°F)
Dewpoint: 14.4°C (58°F) [RH = 68%]
Pressure (altimeter): 29.88 inches Hg (1011.9 mb)
[Sea-level pressure: 1011.8 mb]
Winds: from the SE (140 degrees) at 6 MPH (5 knots; 2.6 m/s)
Visibility: 10 or more miles (16+ km)
Ceiling: 1800 feet AGL
Clouds: overcast cloud deck at 1800 feet AGL
Weather: automated observation with no human augmentation;
there may or may not be significant weather present at this time

METAR text: KSNA 180553Z 00000KT 10SM BKN018 21/15 A2988 RMK AO2 SLP117 LAST T02060150 10239 20206 51010
Conditions at: KSNA (COSTA MESA , CA, US) observed 0553 UTC 18 August 2019
Temperature: 20.6°C (69°F)
Dewpoint: 15.0°C (59°F) [RH = 70%]
Pressure (altimeter): 29.88 inches Hg (1011.9 mb)
[Sea-level pressure: 1011.7 mb]
Winds: calm
Visibility: 10 or more miles (16+ km)
Ceiling: 1800 feet AGL
Clouds: broken clouds at 1800 feet AGL
Weather: no significant weather observed at this time

METAR text: KSNA 180453Z 00000KT 10SM OVC017 21/15 A2988 RMK AO2 SLP115 T02060150
Conditions at: KSNA (COSTA MESA , CA, US) observed 0453 UTC 18 August 2019
Temperature: 20.6°C (69°F)
Dewpoint: 15.0°C (59°F) [RH = 70%]
Pressure (altimeter): 29.88 inches Hg (1011.9 mb)
[Sea-level pressure: 1011.5 mb]
Winds: calm
Visibility: 10 or more miles (16+ km)
Ceiling: 1700 feet AGL
Clouds: overcast cloud deck at 1700 feet AGL
Weather: no significant weather observed at this time

METAR text: KSNA 180353Z 23004KT 10SM OVC016 21/15 A2987 RMK AO2 SLP112 T02060150
Conditions at: KSNA (COSTA MESA , CA, US) observed 0353 UTC 18 August 2019
Temperature: 20.6°C (69°F)
Dewpoint: 15.0°C (59°F) [RH = 70%]
Pressure (altimeter): 29.87 inches Hg (1011.6 mb)
[Sea-level pressure: 1011.2 mb]
Winds: from the SW (230 degrees) at 5 MPH (4 knots; 2.1 m/s)
Visibility: 10 or more miles (16+ km)
Ceiling: 1600 feet AGL
Clouds: overcast cloud deck at 1600 feet AGL
Weather: no significant weather observed at this time

METAR text: KSNA 180326Z 21006KT 10SM BKN016 BKN250 21/15 A2986 RMK AO2 T02060150
Conditions at: KSNA (COSTA MESA , CA, US) observed 0326 UTC 18 August 2019
Temperature: 20.6°C (69°F)
Dewpoint: 15.0°C (59°F) [RH = 70%]
Pressure (altimeter): 29.86 inches Hg (1011.3 mb)
Winds: from the SSW (210 degrees) at 7 MPH (6 knots; 3.1 m/s)
Visibility: 10 or more miles (16+ km)
Ceiling: 1600 feet AGL
Clouds: broken clouds at 1600 feet AGL
broken clouds at 25000 feet AGL
Weather: no significant weather observed at this time

METAR text: KSNA 180253Z 21007KT 10SM SCT014 SCT250 21/15 A2985 RMK AO2 SLP106 T02060150 55000
Conditions at: KSNA (COSTA MESA , CA, US) observed 0253 UTC 18 August 2019
Temperature: 20.6°C (69°F)
Dewpoint: 15.0°C (59°F) [RH = 70%]
Pressure (altimeter): 29.85 inches Hg (1010.9 mb)
[Sea-level pressure: 1010.6 mb]
Winds: from the SSW (210 degrees) at 8 MPH (7 knots; 3.6 m/s)
Visibility: 10 or more miles (16+ km)
Ceiling: at least 12,000 feet AGL
Clouds: scattered clouds at 1400 feet AGL
scattered clouds at 25000 feet AGL
Weather: no significant weather observed at this time

METAR text: KSNA 180153Z 19010KT 10SM FEW015 SCT250 22/15 A2984 RMK AO2 SLP102 T02170150
Conditions at: KSNA (COSTA MESA , CA, US) observed 0153 UTC 18 August 2019
Temperature: 21.7°C (71°F)
Dewpoint: 15.0°C (59°F) [RH = 66%]
Pressure (altimeter): 29.84 inches Hg (1010.6 mb)
[Sea-level pressure: 1010.2 mb]
Winds: from the S (190 degrees) at 12 MPH (10 knots; 5.1 m/s)
Visibility: 10 or more miles (16+ km)
Ceiling: at least 12,000 feet AGL
Clouds: few clouds at 1500 feet AGL
scattered clouds at 25000 feet AGL
Weather: no significant weather observed at this time

METAR text: KSNA 180053Z 19010KT 10SM FEW017 SCT250 22/15 A2984 RMK AO2 SLP103 T02220150
Conditions at: KSNA (COSTA MESA , CA, US) observed 0053 UTC 18 August 2019
Temperature: 22.2°C (72°F)
Dewpoint: 15.0°C (59°F) [RH = 64%]
Pressure (altimeter): 29.84 inches Hg (1010.6 mb)
[Sea-level pressure: 1010.3 mb]
Winds: from the S (190 degrees) at 12 MPH (10 knots; 5.1 m/s)
Visibility: 10 or more miles (16+ km)
Ceiling: at least 12,000 feet AGL
Clouds: few clouds at 1700 feet AGL
scattered clouds at 25000 feet AGL
Weather: no significant weather observed at this time

METAR text: KSNA 172353Z 20012KT 10SM FEW017 SCT250 23/15 A2985 RMK AO2 SLP106 T02280150 10244 20228 56016
Conditions at: KSNA (COSTA MESA , CA, US) observed 2353 UTC 17 August 2019
Temperature: 22.8°C (73°F)
Dewpoint: 15.0°C (59°F) [RH = 61%]
Pressure (altimeter): 29.85 inches Hg (1010.9 mb)
[Sea-level pressure: 1010.6 mb]
Winds: from the SSW (200 degrees) at 14 MPH (12 knots; 6.2 m/s)
Visibility: 10 or more miles (16+ km)
Ceiling: at least 12,000 feet AGL
Clouds: few clouds at 1700 feet AGL
scattered clouds at 25000 feet AGL
Weather: no significant weather observed at this time

METAR text: KSNA 172253Z 18010KT 10SM FEW022 SCT250 24/15 A2986 RMK AO2 SLP109 T02390150
Conditions at: KSNA (COSTA MESA , CA, US) observed 2253 UTC 17 August 2019
Temperature: 23.9°C (75°F)
Dewpoint: 15.0°C (59°F) [RH = 57%]
Pressure (altimeter): 29.86 inches Hg (1011.3 mb)
[Sea-level pressure: 1010.9 mb]
Winds: from the S (180 degrees) at 12 MPH (10 knots; 5.1 m/s)
Visibility: 10 or more miles (16+ km)
Ceiling: at least 12,000 feet AGL
Clouds: few clouds at 2200 feet AGL
scattered clouds at 25000 feet AGL
Weather: no significant weather observed at this time

METAR text: KSNA 172153Z 21009KT 10SM FEW022 SCT250 24/15 A2988 RMK AO2 SLP116 T02390150
Conditions at: KSNA (COSTA MESA , CA, US) observed 2153 UTC 17 August 2019
Temperature: 23.9°C (75°F)
Dewpoint: 15.0°C (59°F) [RH = 57%]
Pressure (altimeter): 29.88 inches Hg (1011.9 mb)
[Sea-level pressure: 1011.6 mb]
Winds: from the SSW (210 degrees) at 10 MPH (9 knots; 4.6 m/s)
Visibility: 10 or more miles (16+ km)
Ceiling: at least 12,000 feet AGL
Clouds: few clouds at 2200 feet AGL
scattered clouds at 25000 feet AGL
Weather: no significant weather observed at this time

METAR text: KSNA 172053Z 20009KT 10SM FEW025 SCT250 23/15 A2990 RMK AO2 SLP122 T02330150 58008
Conditions at: KSNA (COSTA MESA , CA, US) observed 2053 UTC 17 August 2019
Temperature: 23.3°C (74°F)
Dewpoint: 15.0°C (59°F) [RH = 60%]
Pressure (altimeter): 29.90 inches Hg (1012.6 mb)
[Sea-level pressure: 1012.2 mb]
Winds: from the SSW (200 degrees) at 10 MPH (9 knots; 4.6 m/s)
Visibility: 10 or more miles (16+ km)
Ceiling: at least 12,000 feet AGL
Clouds: few clouds at 2500 feet AGL
scattered clouds at 25000 feet AGL
Weather: no significant weather observed at this time

METAR text: KSNA 171953Z 20009KT 10SM FEW025 SCT250 23/14 A2991 RMK AO2 SLP127 T02330144
Conditions at: KSNA (COSTA MESA , CA, US) observed 1953 UTC 17 August 2019
Temperature: 23.3°C (74°F)
Dewpoint: 14.4°C (58°F) [RH = 57%]
Pressure (altimeter): 29.91 inches Hg (1013.0 mb)
[Sea-level pressure: 1012.7 mb]
Winds: from the SSW (200 degrees) at 10 MPH (9 knots; 4.6 m/s)
Visibility: 10 or more miles (16+ km)
Ceiling: at least 12,000 feet AGL
Clouds: few clouds at 2500 feet AGL
scattered clouds at 25000 feet AGL
Weather: no significant weather observed at this time

METAR text: KSNA 171853Z 20010KT 10SM FEW024 FEW250 24/15 A2991 RMK AO2 SLP128 T02390150
Conditions at: KSNA (COSTA MESA , CA, US) observed 1853 UTC 17 August 2019
Temperature: 23.9°C (75°F)
Dewpoint: 15.0°C (59°F) [RH = 57%]
Pressure (altimeter): 29.91 inches Hg (1013.0 mb)
[Sea-level pressure: 1012.8 mb]
Winds: from the SSW (200 degrees) at 12 MPH (10 knots; 5.1 m/s)
Visibility: 10 or more miles (16+ km)
Ceiling: at least 12,000 feet AGL
Clouds: few clouds at 2400 feet AGL
few clouds at 25000 feet AGL
Weather: no significant weather observed at this time

METAR text: KSNA 171753Z 17005KT 10SM FEW024 FEW250 23/14 A2992 RMK AO2 SLP130 T02330144 10233 20194 58001
Conditions at: KSNA (COSTA MESA , CA, US) observed 1753 UTC 17 August 2019
Temperature: 23.3°C (74°F)
Dewpoint: 14.4°C (58°F) [RH = 57%]
Pressure (altimeter): 29.92 inches Hg (1013.3 mb)
[Sea-level pressure: 1013.0 mb]
Winds: from the S (170 degrees) at 6 MPH (5 knots; 2.6 m/s)
Visibility: 10 or more miles (16+ km)
Ceiling: at least 12,000 feet AGL
Clouds: few clouds at 2400 feet AGL
few clouds at 25000 feet AGL
Weather: no significant weather observed at this time

METAR text: KSNA 171717Z 00000KT 10SM SCT024 SCT250 22/14 A2992 RMK AO2 T02170139
Conditions at: KSNA (COSTA MESA , CA, US) observed 1717 UTC 17 August 2019
Temperature: 21.7°C (71°F)
Dewpoint: 13.9°C (57°F) [RH = 61%]
Pressure (altimeter): 29.92 inches Hg (1013.3 mb)
Winds: calm
Visibility: 10 or more miles (16+ km)
Ceiling: at least 12,000 feet AGL
Clouds: scattered clouds at 2400 feet AGL
scattered clouds at 25000 feet AGL
Weather: no significant weather observed at this time

METAR text: KSNA 171653Z VRB04KT 8SM BKN022 22/14 A2992 RMK AO2 SLP132 T02220139
Conditions at: KSNA (COSTA MESA , CA, US) observed 1653 UTC 17 August 2019
Temperature: 22.2°C (72°F)
Dewpoint: 13.9°C (57°F) [RH = 59%]
Pressure (altimeter): 29.92 inches Hg (1013.3 mb)
[Sea-level pressure: 1013.2 mb]
Winds: variable direction winds at 5 MPH (4 knots; 2.1 m/s)
Visibility: 8 miles (13 km)
Ceiling: 2200 feet AGL
Clouds: broken clouds at 2200 feet AGL
Weather: no significant weather observed at this time

METAR text: KSNA 171553Z VRB03KT 10SM BKN019 21/14 A2993 RMK AO2 SLP134 T02060139
Conditions at: KSNA (COSTA MESA , CA, US) observed 1553 UTC 17 August 2019
Temperature: 20.6°C (69°F)
Dewpoint: 13.9°C (57°F) [RH = 65%]
Pressure (altimeter): 29.93 inches Hg (1013.6 mb)
[Sea-level pressure: 1013.4 mb]
Winds: variable direction winds at 3 MPH (3 knots; 1.5 m/s)
Visibility: 10 or more miles (16+ km)
Ceiling: 1900 feet AGL
Clouds: broken clouds at 1900 feet AGL
Weather: no significant weather observed at this time

METAR text: KSNA 171453Z 13003KT 10SM BKN019 20/13 A2992 RMK AO2 SLP132 T02000133 52009
Conditions at: KSNA (COSTA MESA , CA, US) observed 1453 UTC 17 August 2019
Temperature: 20.0°C (68°F)
Dewpoint: 13.3°C (56°F) [RH = 65%]
Pressure (altimeter): 29.92 inches Hg (1013.3 mb)
[Sea-level pressure: 1013.2 mb]
Winds: from the SE (130 degrees) at 3 MPH (3 knots; 1.5 m/s)
Visibility: 10 or more miles (16+ km)
Ceiling: 1900 feet AGL
Clouds: broken clouds at 1900 feet AGL
Weather: no significant weather observed at this time

METAR text: KSNA 171353Z VRB04KT 10SM OVC019 19/13 A2991 RMK AO2 SLP129 T01940133
Conditions at: KSNA (COSTA MESA , CA, US) observed 1353 UTC 17 August 2019
Temperature: 19.4°C (67°F)
Dewpoint: 13.3°C (56°F) [RH = 68%]
Pressure (altimeter): 29.91 inches Hg (1013.0 mb)
[Sea-level pressure: 1012.9 mb]
Winds: variable direction winds at 5 MPH (4 knots; 2.1 m/s)
Visibility: 10 or more miles (16+ km)
Ceiling: 1900 feet AGL
Clouds: overcast cloud deck at 1900 feet AGL
Weather: no significant weather observed at this time

METAR text: KSNA 171253Z 10003KT 9SM OVC019 19/13 A2990 RMK AO2 SLP125 T01940133
Conditions at: KSNA (COSTA MESA , CA, US) observed 1253 UTC 17 August 2019
Temperature: 19.4°C (67°F)
Dewpoint: 13.3°C (56°F) [RH = 68%]
Pressure (altimeter): 29.90 inches Hg (1012.6 mb)
[Sea-level pressure: 1012.5 mb]
Winds: from the E (100 degrees) at 3 MPH (3 knots; 1.5 m/s)
Visibility: 9 miles (14 km)
Ceiling: 1900 feet AGL
Clouds: overcast cloud deck at 1900 feet AGL
Weather: no significant weather observed at this time

METAR text: KSNA 171153Z AUTO 10003KT 10SM OVC018 19/14 A2990 RMK AO2 SLP122 T01940139 10200 20194 56004
Conditions at: KSNA (COSTA MESA , CA, US) observed 1153 UTC 17 August 2019
Temperature: 19.4°C (67°F)
Dewpoint: 13.9°C (57°F) [RH = 71%]
Pressure (altimeter): 29.90 inches Hg (1012.6 mb)
[Sea-level pressure: 1012.2 mb]
Winds: from the E (100 degrees) at 3 MPH (3 knots; 1.5 m/s)
Visibility: 10 or more miles (16+ km)
Ceiling: 1800 feet AGL
Clouds: overcast cloud deck at 1800 feet AGL
Weather: automated observation with no human augmentation;
there may or may not be significant weather present at this time

METAR text: KSNA 171053Z AUTO 19005KT 10SM OVC018 19/14 A2990 RMK AO2 SLP123 T01940139
Conditions at: KSNA (COSTA MESA , CA, US) observed 1053 UTC 17 August 2019
Temperature: 19.4°C (67°F)
Dewpoint: 13.9°C (57°F) [RH = 71%]
Pressure (altimeter): 29.90 inches Hg (1012.6 mb)
[Sea-level pressure: 1012.3 mb]
Winds: from the S (190 degrees) at 6 MPH (5 knots; 2.6 m/s)
Visibility: 10 or more miles (16+ km)
Ceiling: 1800 feet AGL
Clouds: overcast cloud deck at 1800 feet AGL
Weather: automated observation with no human augmentation;
there may or may not be significant weather present at this time

METAR text: KSNA 170953Z AUTO 12005KT 10SM OVC017 20/14 A2990 RMK AO2 SLP124 T02000139
Conditions at: KSNA (COSTA MESA , CA, US) observed 0953 UTC 17 August 2019
Temperature: 20.0°C (68°F)
Dewpoint: 13.9°C (57°F) [RH = 68%]
Pressure (altimeter): 29.90 inches Hg (1012.6 mb)
[Sea-level pressure: 1012.4 mb]
Winds: from the ESE (120 degrees) at 6 MPH (5 knots; 2.6 m/s)
Visibility: 10 or more miles (16+ km)
Ceiling: 1700 feet AGL
Clouds: overcast cloud deck at 1700 feet AGL
Weather: automated observation with no human augmentation;
there may or may not be significant weather present at this time

METAR text: KSNA 170853Z AUTO 13003KT 10SM OVC015 20/14 A2991 RMK AO2 SLP127 T02000144 58004
Conditions at: KSNA (COSTA MESA , CA, US) observed 0853 UTC 17 August 2019
Temperature: 20.0°C (68°F)
Dewpoint: 14.4°C (58°F) [RH = 70%]
Pressure (altimeter): 29.91 inches Hg (1013.0 mb)
[Sea-level pressure: 1012.7 mb]
Winds: from the SE (130 degrees) at 3 MPH (3 knots; 1.5 m/s)
Visibility: 10 or more miles (16+ km)
Ceiling: 1500 feet AGL
Clouds: overcast cloud deck at 1500 feet AGL
Weather: automated observation with no human augmentation;
there may or may not be significant weather present at this time

METAR text: KSNA 170753Z AUTO VRB05KT 10SM OVC016 20/14 A2991 RMK AO2 SLP129 T02000144 402500183
Conditions at: KSNA (COSTA MESA , CA, US) observed 0753 UTC 17 August 2019
Temperature: 20.0°C (68°F)
Dewpoint: 14.4°C (58°F) [RH = 70%]
Pressure (altimeter): 29.91 inches Hg (1013.0 mb)
[Sea-level pressure: 1012.9 mb]
Winds: variable direction winds at 6 MPH (5 knots; 2.6 m/s)
Visibility: 10 or more miles (16+ km)
Ceiling: 1600 feet AGL
Clouds: overcast cloud deck at 1600 feet AGL
Weather: automated observation with no human augmentation;
there may or may not be significant weather present at this time

METAR text: KSNA 170727Z AUTO 18003KT 10SM OVC015 20/14 A2992 RMK AO2 T02000144
Conditions at: KSNA (COSTA MESA , CA, US) observed 0727 UTC 17 August 2019
Temperature: 20.0°C (68°F)
Dewpoint: 14.4°C (58°F) [RH = 70%]
Pressure (altimeter): 29.92 inches Hg (1013.3 mb)
Winds: from the S (180 degrees) at 3 MPH (3 knots; 1.5 m/s)
Visibility: 10 or more miles (16+ km)
Ceiling: 1500 feet AGL
Clouds: overcast cloud deck at 1500 feet AGL
Weather: automated observation with no human augmentation;
there may or may not be significant weather present at this time

METAR text: KSNA 170653Z AUTO 13004KT 10SM OVC013 19/14 A2992 RMK AO2 SLP131 T01940144
Conditions at: KSNA (COSTA MESA , CA, US) observed 0653 UTC 17 August 2019
Temperature: 19.4°C (67°F)
Dewpoint: 14.4°C (58°F) [RH = 73%]
Pressure (altimeter): 29.92 inches Hg (1013.3 mb)
[Sea-level pressure: 1013.1 mb]
Winds: from the SE (130 degrees) at 5 MPH (4 knots; 2.1 m/s)
Visibility: 10 or more miles (16+ km)
Ceiling: 1300 feet AGL
Clouds: overcast cloud deck at 1300 feet AGL
Weather: automated observation with no human augmentation;
there may or may not be significant weather present at this time

METAR text: KSNA 170553Z AUTO 17006KT 10SM OVC012 19/15 A2992 RMK AO2 SLP130 LAST T01940150 10228 20194 50009
Conditions at: KSNA (COSTA MESA , CA, US) observed 0553 UTC 17 August 2019
Temperature: 19.4°C (67°F)
Dewpoint: 15.0°C (59°F) [RH = 76%]
Pressure (altimeter): 29.92 inches Hg (1013.3 mb)
[Sea-level pressure: 1013.0 mb]
Winds: from the S (170 degrees) at 7 MPH (6 knots; 3.1 m/s)
Visibility: 10 or more miles (16+ km)
Ceiling: 1200 feet AGL
Clouds: overcast cloud deck at 1200 feet AGL
Weather: automated observation with no human augmentation;
there may or may not be significant weather present at this time

METAR text: KSNA 170453Z 16005KT 10SM OVC013 19/15 A2992 RMK AO2 SLP132 T01940150
Conditions at: KSNA (COSTA MESA , CA, US) observed 0453 UTC 17 August 2019
Temperature: 19.4°C (67°F)
Dewpoint: 15.0°C (59°F) [RH = 76%]
Pressure (altimeter): 29.92 inches Hg (1013.3 mb)
[Sea-level pressure: 1013.2 mb]
Winds: from the SSE (160 degrees) at 6 MPH (5 knots; 2.6 m/s)
Visibility: 10 or more miles (16+ km)
Ceiling: 1300 feet AGL
Clouds: overcast cloud deck at 1300 feet AGL
Weather: no significant weather observed at this time

METAR text: KSNA 170423Z 15006KT 10SM BKN015 20/15 A2992 RMK AO2 T02000150
Conditions at: KSNA (COSTA MESA , CA, US) observed 0423 UTC 17 August 2019
Temperature: 20.0°C (68°F)
Dewpoint: 15.0°C (59°F) [RH = 73%]
Pressure (altimeter): 29.92 inches Hg (1013.3 mb)
Winds: from the SSE (150 degrees) at 7 MPH (6 knots; 3.1 m/s)
Visibility: 10 or more miles (16+ km)
Ceiling: 1500 feet AGL
Clouds: broken clouds at 1500 feet AGL
Weather: no significant weather observed at this time

METAR text: KSNA 170411Z 17005KT 10SM SCT013 19/15 A2991 RMK AO2 T01940150
Conditions at: KSNA (COSTA MESA , CA, US) observed 0411 UTC 17 August 2019
Temperature: 19.4°C (67°F)
Dewpoint: 15.0°C (59°F) [RH = 76%]
Pressure (altimeter): 29.91 inches Hg (1013.0 mb)
Winds: from the S (170 degrees) at 6 MPH (5 knots; 2.6 m/s)
Visibility: 10 or more miles (16+ km)
Ceiling: at least 12,000 feet AGL
Clouds: scattered clouds at 1300 feet AGL
Weather: no significant weather observed at this time

METAR text: KSNA 170353Z 17007KT 10SM BKN013 19/15 A2991 RMK AO2 SLP127 T01940150
Conditions at: KSNA (COSTA MESA , CA, US) observed 0353 UTC 17 August 2019
Temperature: 19.4°C (67°F)
Dewpoint: 15.0°C (59°F) [RH = 76%]
Pressure (altimeter): 29.91 inches Hg (1013.0 mb)
[Sea-level pressure: 1012.7 mb]
Winds: from the S (170 degrees) at 8 MPH (7 knots; 3.6 m/s)
Visibility: 10 or more miles (16+ km)
Ceiling: 1300 feet AGL
Clouds: broken clouds at 1300 feet AGL
Weather: no significant weather observed at this time

METAR text: KSNA 170336Z 19006KT 10SM BKN013 20/15 A2990 RMK AO2 T02000150
Conditions at: KSNA (COSTA MESA , CA, US) observed 0336 UTC 17 August 2019
Temperature: 20.0°C (68°F)
Dewpoint: 15.0°C (59°F) [RH = 73%]
Pressure (altimeter): 29.90 inches Hg (1012.6 mb)
Winds: from the S (190 degrees) at 7 MPH (6 knots; 3.1 m/s)
Visibility: 10 or more miles (16+ km)
Ceiling: 1300 feet AGL
Clouds: broken clouds at 1300 feet AGL
Weather: no significant weather observed at this time

METAR text: KSNA 170327Z 20006KT 10SM SCT013 20/15 A2990 RMK AO2 T02000150
Conditions at: KSNA (COSTA MESA , CA, US) observed 0327 UTC 17 August 2019
Temperature: 20.0°C (68°F)
Dewpoint: 15.0°C (59°F) [RH = 73%]
Pressure (altimeter): 29.90 inches Hg (1012.6 mb)
Winds: from the SSW (200 degrees) at 7 MPH (6 knots; 3.1 m/s)
Visibility: 10 or more miles (16+ km)
Ceiling: at least 12,000 feet AGL
Clouds: scattered clouds at 1300 feet AGL
Weather: no significant weather observed at this time

METAR text: KSNA 170301Z 20007KT 10SM BKN012 21/16 A2989 RMK AO2 T02060156
Conditions at: KSNA (COSTA MESA , CA, US) observed 0301 UTC 17 August 2019
Temperature: 20.6°C (69°F)
Dewpoint: 15.6°C (60°F) [RH = 73%]
Pressure (altimeter): 29.89 inches Hg (1012.3 mb)
Winds: from the SSW (200 degrees) at 8 MPH (7 knots; 3.6 m/s)
Visibility: 10 or more miles (16+ km)
Ceiling: 1200 feet AGL
Clouds: broken clouds at 1200 feet AGL
Weather: no significant weather observed at this time

Forecast for: KSNA (COSTA MESA , CA, US)
Text: KSNA 181120Z 1812/1912 VRB04KT P6SM OVC015
Forecast period: 1200 to 1700 UTC 18 August 2019
Forecast type: FROM: standard forecast or significant change
Winds: variable direction winds at 5 MPH (4 knots; 2.1 m/s)
Visibility: 6 or more miles 10+ km)
Ceiling: 1500 feet AGL
Clouds: overcast cloud deck at 1500 feet AGL
Weather: no significant weather forecast for this period
Text: FM181700 VRB04KT P6SM SCT015
Forecast period: 1700 to 1900 UTC 18 August 2019
Forecast type: FROM: standard forecast or significant change
Winds: variable direction winds at 5 MPH (4 knots; 2.1 m/s)
Visibility: 6 or more miles 10+ km)
Ceiling: at least 12,000 feet AGL
Clouds: scattered clouds at 1500 feet AGL
Weather: no significant weather forecast for this period
Text: FM181900 21010KT P6SM FEW250
Forecast period: 1900 UTC 18 August 2019 to 0300 UTC 19 August 2019
Forecast type: FROM: standard forecast or significant change
Winds: from the SSW (210 degrees) at 12 MPH (10 knots; 5.1 m/s)
Visibility: 6 or more miles 10+ km)
Ceiling: at least 12,000 feet AGL
Clouds: few clouds at 25000 feet AGL
Weather: no significant weather forecast for this period
Text: FM190300 VRB04KT P6SM SCT015
Forecast period: 0300 to 0400 UTC 19 August 2019
Forecast type: FROM: standard forecast or significant change
Winds: variable direction winds at 5 MPH (4 knots; 2.1 m/s)
Visibility: 6 or more miles 10+ km)
Ceiling: at least 12,000 feet AGL
Clouds: scattered clouds at 1500 feet AGL
Weather: no significant weather forecast for this period
Text: FM190400 VRB04KT P6SM OVC015
Forecast period: 0400 to 1200 UTC 19 August 2019
Forecast type: FROM: standard forecast or significant change
Winds: variable direction winds at 5 MPH (4 knots; 2.1 m/s)
Visibility: 6 or more miles 10+ km)
Ceiling: 1500 feet AGL
Clouds: overcast cloud deck at 1500 feet AGL
Weather: no significant weather forecast for this period